createdAt,value
2019-03-01T00:01:06.818Z,96197.39
2019-03-01T00:03:35.420Z,96193.44
2019-03-01T00:06:19.589Z,96194.15
2019-03-01T00:09:28.340Z,96191.44
2019-03-01T00:12:27.703Z,96187.26
2019-03-01T00:15:27.181Z,96195.16
2019-03-01T00:18:02.139Z,96193.36
2019-03-01T00:20:37.295Z,96188.50
2019-03-01T00:23:32.027Z,96190.45
2019-03-01T00:26:28.043Z,96186.16
2019-03-01T00:29:08.755Z,96198.58
2019-03-01T00:32:14.059Z,96191.02
2019-03-01T00:35:16.822Z,96189.77
2019-03-01T00:38:07.468Z,96186.05
2019-03-01T00:41:00.597Z,96175.12
2019-03-01T00:43:44.319Z,96170.59
2019-03-01T00:46:10.748Z,96176.70
2019-03-01T00:48:37.491Z,96171.75
2019-03-01T00:51:03.826Z,96175.03
2019-03-01T00:53:30.352Z,96171.08
2019-03-01T00:55:56.825Z,96170.62
2019-03-01T00:58:23.153Z,96169.27
2019-03-01T01:00:49.432Z,96160.15
2019-03-01T01:03:15.757Z,96165.91
2019-03-01T01:05:42.117Z,96165.34
2019-03-01T01:08:08.551Z,96173.47
2019-03-01T01:10:34.960Z,96162.97
2019-03-01T01:13:01.508Z,96162.18
2019-03-01T01:15:27.920Z,96168.84
2019-03-01T01:17:54.319Z,96167.28
2019-03-01T01:20:20.601Z,96159.16
2019-03-01T01:22:46.931Z,96155.77
2019-03-01T01:25:13.242Z,96160.95
2019-03-01T01:27:41.114Z,96161.86
2019-03-01T01:37:41.720Z,96164.34
2019-03-01T01:40:09.331Z,96165.38
2019-03-01T01:42:35.661Z,96164.81
2019-03-01T01:45:04.790Z,96159.17
2019-03-01T01:47:31.107Z,96164.36
2019-03-01T01:49:57.456Z,96161.66
2019-03-01T01:52:23.978Z,96162.22
2019-03-01T01:54:50.367Z,96154.23
2019-03-01T01:57:16.793Z,96162.55
2019-03-01T01:59:43.235Z,96168.67
2019-03-01T02:02:09.536Z,96162.01
2019-03-01T02:04:35.952Z,96158.28
2019-03-01T02:07:02.412Z,96160.56
2019-03-01T02:09:28.848Z,96160.56
2019-03-01T02:11:55.154Z,96162.03
2019-03-01T02:14:21.601Z,96154.47
2019-03-01T02:16:48.062Z,96158.64
2019-03-01T02:19:14.447Z,96156.49
2019-03-01T02:21:40.786Z,96164.19
2019-03-01T02:24:07.170Z,96160.46
2019-03-01T02:26:33.734Z,96160.80
2019-03-01T02:29:00.093Z,96153.57
2019-03-01T02:31:26.528Z,96163.61
2019-03-01T02:33:52.972Z,96158.33
2019-03-01T02:36:19.382Z,96159.45
2019-03-01T02:38:46.137Z,96156.86
2019-03-01T02:41:12.430Z,96162.83
2019-03-01T02:43:39.111Z,96163.73
2019-03-01T02:46:05.497Z,96158.12
2019-03-01T02:48:32.135Z,96155.18
2019-03-01T02:50:58.805Z,96160.37
2019-03-01T02:53:25.128Z,96166.02
2019-03-01T02:55:51.660Z,96163.30
2019-03-01T02:58:18.059Z,96163.08
2019-03-01T03:00:44.550Z,96165.55
2019-03-01T03:03:11.043Z,96157.43
2019-03-01T03:05:39.672Z,96161.27
2019-03-01T03:08:08.401Z,96156.75
2019-03-01T03:10:35.170Z,96159.81
2019-03-01T03:13:04.660Z,96157.44
2019-03-01T03:15:39.017Z,96157.78
2019-03-01T03:18:05.447Z,96159.23
2019-03-01T03:20:32.007Z,96158.58
2019-03-01T03:22:58.515Z,96154.75
2019-03-01T03:25:24.816Z,96150.45
2019-03-01T03:27:51.522Z,96154.52
2019-03-01T03:30:18.623Z,96149.44
2019-03-01T03:32:45.140Z,96158.34
2019-03-01T03:35:11.652Z,96153.16
2019-03-01T03:37:37.972Z,96158.02
2019-03-01T03:40:11.067Z,96159.70
2019-03-01T03:42:37.360Z,96158.13
2019-03-01T03:45:11.889Z,96152.25
2019-03-01T03:47:38.455Z,96146.38
2019-03-01T03:50:11.323Z,96147.73
2019-03-01T03:52:37.607Z,96150.80
2019-03-01T03:55:07.332Z,96145.95
2019-03-01T03:57:33.656Z,96148.20
2019-03-01T04:00:00.323Z,96144.14
2019-03-01T04:02:26.969Z,96141.20
2019-03-01T04:04:53.257Z,96144.14
2019-03-01T04:07:19.620Z,96146.84
2019-03-01T04:09:45.999Z,96142.55
2019-03-01T04:12:12.515Z,96145.03
2019-03-01T04:14:38.971Z,96146.16
2019-03-01T04:17:05.441Z,96146.16
2019-03-01T04:19:32.051Z,96136.45
2019-03-01T04:21:58.591Z,96137.25
2019-03-01T04:24:25.011Z,96134.91
2019-03-01T04:26:51.333Z,96133.32
2019-03-01T04:29:17.784Z,96138.73
2019-03-01T04:31:44.348Z,96139.63
2019-03-01T04:34:10.727Z,96140.19
2019-03-01T04:36:37.129Z,96145.04
2019-03-01T04:39:05.993Z,96143.69
2019-03-01T04:41:32.512Z,96148.31
2019-03-01T04:43:58.932Z,96136.59
2019-03-01T04:46:25.326Z,96140.09
2019-03-01T04:48:51.810Z,96139.86
2019-03-01T04:51:18.380Z,96141.21
2019-03-01T04:53:44.711Z,96145.04
2019-03-01T04:56:10.988Z,96148.31
2019-03-01T04:58:37.640Z,96142.44
2019-03-01T05:01:04.075Z,96149.89
2019-03-01T05:03:30.476Z,96151.81
2019-03-01T05:05:56.940Z,96145.94
2019-03-01T05:08:23.320Z,96149.54
2019-03-01T05:10:49.912Z,96146.27
2019-03-01T05:13:16.369Z,96143.00
2019-03-01T05:15:42.744Z,96142.77
2019-03-01T05:18:09.187Z,96145.48
2019-03-01T05:20:35.697Z,96142.21
2019-03-01T05:23:01.996Z,96146.50
2019-03-01T05:25:28.407Z,96145.37
2019-03-01T05:27:54.798Z,96138.95
2019-03-01T05:30:21.225Z,96141.88
2019-03-01T05:32:47.680Z,96143.00
2019-03-01T05:35:14.135Z,96146.04
2019-03-01T05:37:40.550Z,96147.52
2019-03-01T05:40:15.500Z,96148.64
2019-03-01T05:42:41.895Z,96153.59
2019-03-01T05:45:18.324Z,96153.37
2019-03-01T05:47:44.715Z,96149.64
2019-03-01T05:50:13.438Z,96151.69
2019-03-01T05:52:39.874Z,96146.61
2019-03-01T05:55:08.170Z,96149.88
2019-03-01T05:57:34.574Z,96147.50
2019-03-01T06:00:01.034Z,96147.03
2019-03-01T06:02:41.950Z,96148.39
2019-03-01T06:05:11.785Z,96153.59
2019-03-01T06:07:52.900Z,96153.36
2019-03-01T06:10:37.239Z,96147.73
2019-03-01T06:13:24.770Z,96156.17
2019-03-01T06:16:36.841Z,96157.19
2019-03-01T06:19:11.687Z,96159.66
2019-03-01T06:22:02.132Z,96159.44
2019-03-01T06:24:56.703Z,96158.08
2019-03-01T06:27:47.044Z,96166.98
2019-03-01T06:30:24.913Z,96166.98
2019-03-01T06:33:31.926Z,96169.13
2019-03-01T06:36:48.523Z,96170.71
2019-03-01T06:39:31.528Z,96170.95
2019-03-01T06:42:37.629Z,96171.73
2019-03-01T06:45:22.639Z,96177.02
2019-03-01T06:47:49.077Z,96181.30
2019-03-01T06:50:20.489Z,96183.45
2019-03-01T06:52:46.921Z,96178.59
2019-03-01T06:55:33.523Z,96181.08
2019-03-01T06:57:59.847Z,96175.44
2019-03-01T07:00:26.719Z,96178.73
2019-03-01T07:03:00.245Z,96174.67
2019-03-01T07:05:26.632Z,96177.58
2019-03-01T07:07:53.260Z,96174.08
2019-03-01T07:10:19.850Z,96177.02
2019-03-01T07:12:46.162Z,96179.16
2019-03-01T07:15:12.503Z,96184.34
2019-03-01T07:17:38.929Z,96179.48
2019-03-01T07:20:08.646Z,96180.41
2019-03-01T07:22:35.211Z,96185.03
2019-03-01T07:25:02.389Z,96181.30
2019-03-01T07:27:29.003Z,96185.36
2019-03-01T07:29:55.441Z,96180.84
2019-03-01T07:32:21.900Z,96185.13
2019-03-01T07:34:48.258Z,96182.19
2019-03-01T07:37:14.891Z,96188.06
2019-03-01T07:39:41.410Z,96185.36
2019-03-01T07:42:07.819Z,96188.06
2019-03-01T07:44:34.382Z,96184.00
2019-03-01T07:47:00.870Z,96186.94
2019-03-01T07:49:27.400Z,96189.41
2019-03-01T07:51:53.725Z,96185.91
2019-03-01T07:54:22.237Z,96184.89
2019-03-01T07:56:48.419Z,96188.16
2019-03-01T07:59:14.835Z,96190.63
2019-03-01T08:01:41.236Z,96190.43
2019-03-01T08:04:07.651Z,96191.09
2019-03-01T08:06:33.984Z,96187.36
2019-03-01T08:09:00.457Z,96185.77
2019-03-01T08:11:31.367Z,96184.98
2019-03-01T08:13:56.711Z,96183.86
2019-03-01T08:16:25.113Z,96183.53
2019-03-01T08:18:51.413Z,96177.00
2019-03-01T08:21:17.924Z,96174.77
2019-03-01T08:23:44.480Z,96172.49
2019-03-01T08:26:10.781Z,96173.19
2019-03-01T08:28:37.125Z,96160.55
2019-03-01T08:31:04.815Z,96159.80
2019-03-01T08:33:31.217Z,96159.00
2019-03-01T08:35:57.709Z,96154.72
2019-03-01T08:38:25.461Z,96147.75
2019-03-01T08:40:54.466Z,96141.55
2019-03-01T08:43:20.835Z,96147.51
2019-03-01T08:45:47.247Z,96137.61
2019-03-01T08:48:13.532Z,96144.59
2019-03-01T08:50:39.937Z,96133.64
2019-03-01T08:53:06.554Z,96137.59
2019-03-01T08:55:35.601Z,96131.52
2019-03-01T08:58:03.468Z,96133.09
2019-03-01T09:00:40.007Z,96133.99
2019-03-01T09:03:11.946Z,96129.93
2019-03-01T09:05:38.229Z,96133.09
2019-03-01T09:08:04.540Z,96138.05
2019-03-01T09:10:32.754Z,96139.17
2019-03-01T09:12:59.383Z,96138.72
2019-03-01T09:15:25.783Z,96138.06
2019-03-01T09:17:52.530Z,96135.79
2019-03-01T09:20:19.112Z,96138.59
2019-03-01T09:22:45.543Z,96144.15
2019-03-01T09:25:13.450Z,96139.40
2019-03-01T09:27:39.879Z,96131.61
2019-03-01T09:30:17.759Z,96147.05
2019-03-01T09:32:44.147Z,96141.22
2019-03-01T09:35:15.967Z,96146.04
2019-03-01T09:37:42.500Z,96144.92
2019-03-01T09:40:08.925Z,96143.44
2019-03-01T09:42:35.384Z,96147.06
2019-03-01T09:45:01.735Z,96148.52
2019-03-01T09:47:28.122Z,96146.14
2019-03-01T09:49:56.598Z,96139.38
2019-03-01T09:52:23.624Z,96139.38
2019-03-01T09:54:50.978Z,96139.61
2019-03-01T09:57:17.273Z,96139.52
2019-03-01T09:59:43.634Z,96139.97
2019-03-01T10:02:10.022Z,96136.67
2019-03-01T10:04:36.700Z,96128.79
2019-03-01T10:07:02.986Z,96131.16
2019-03-01T10:09:29.394Z,96133.64
2019-03-01T10:11:55.803Z,96129.58
2019-03-01T10:14:22.096Z,96128.00
2019-03-01T10:16:51.730Z,96124.30
2019-03-01T10:19:18.483Z,96123.84
2019-03-01T10:21:44.786Z,96118.77
2019-03-01T10:24:11.454Z,96121.80
2019-03-01T10:26:37.740Z,96118.64
2019-03-01T10:29:04.267Z,96120.58
2019-03-01T10:31:30.665Z,96122.03
2019-03-01T10:33:56.976Z,96118.31
2019-03-01T10:36:23.262Z,96114.58
2019-03-01T10:38:49.818Z,96118.20
2019-03-01T10:41:16.132Z,96117.19
2019-03-01T10:43:42.443Z,96114.02
2019-03-01T10:46:09.102Z,96116.59
2019-03-01T10:48:35.486Z,96112.67
2019-03-01T10:51:02.044Z,96111.63
2019-03-01T10:53:28.418Z,96107.34
2019-03-01T10:55:54.767Z,96110.59
2019-03-01T10:58:21.337Z,96102.81
2019-03-01T11:00:47.764Z,96102.25
2019-03-01T11:03:14.260Z,96101.47
2019-03-01T11:05:40.562Z,96102.59
2019-03-01T11:08:06.931Z,96095.27
2019-03-01T11:10:39.241Z,96102.59
2019-03-01T11:13:16.347Z,96092.69
2019-03-01T11:15:42.636Z,96091.67
2019-03-01T11:18:08.999Z,96096.75
2019-03-01T11:20:35.461Z,96093.81
2019-03-01T11:23:01.888Z,96092.69
2019-03-01T11:25:28.268Z,96097.80
2019-03-01T11:27:54.599Z,96096.98
2019-03-01T11:30:34.974Z,96093.25
2019-03-01T11:33:01.423Z,96091.11
2019-03-01T11:35:27.840Z,96087.05
2019-03-01T11:37:54.208Z,96087.05
2019-03-01T11:40:32.723Z,96079.17
2019-03-01T11:42:59.194Z,96074.56
2019-03-01T11:45:25.715Z,96082.80
2019-03-01T11:47:52.006Z,96078.08
2019-03-01T11:50:23.946Z,96084.18
2019-03-01T11:52:50.247Z,96076.06
2019-03-01T11:55:16.669Z,96074.02
2019-03-01T11:57:42.972Z,96075.05
2019-03-01T12:00:18.471Z,96072.00
2019-03-01T12:02:45.351Z,96072.47
2019-03-01T12:05:13.035Z,96079.78
2019-03-01T12:07:39.336Z,96073.48
2019-03-01T12:10:13.211Z,96075.82
2019-03-01T12:12:39.715Z,96071.43
2019-03-01T12:15:08.947Z,96068.49
2019-03-01T12:17:35.231Z,96068.86
2019-03-01T12:20:01.620Z,96066.16
2019-03-01T12:22:28.072Z,96057.81
2019-03-01T12:24:54.475Z,96059.73
2019-03-01T12:27:21.004Z,96061.64
2019-03-01T12:29:47.439Z,96058.94
2019-03-01T12:32:13.863Z,96056.00
2019-03-01T12:34:40.305Z,96054.65
2019-03-01T12:37:06.830Z,96061.64
2019-03-01T12:39:33.250Z,96054.65
2019-03-01T12:41:59.550Z,96059.95
2019-03-01T12:44:26.106Z,96050.48
2019-03-01T12:46:52.505Z,96051.38
2019-03-01T12:49:18.942Z,96048.78
2019-03-01T12:51:45.371Z,96048.13
2019-03-01T12:54:11.781Z,96049.91
2019-03-01T12:56:38.318Z,96053.18
2019-03-01T12:59:04.750Z,96050.61
2019-03-01T13:01:31.145Z,96051.73
2019-03-01T13:03:57.736Z,96052.16
2019-03-01T13:06:24.267Z,96048.56
2019-03-01T13:08:51.542Z,96042.03
2019-03-01T13:11:18.962Z,96036.85
2019-03-01T13:13:45.627Z,96041.80
2019-03-01T13:16:12.140Z,96037.42
2019-03-01T13:18:38.530Z,96035.94
2019-03-01T13:21:05.000Z,96029.87
2019-03-01T13:23:31.386Z,96033.45
2019-03-01T13:25:57.711Z,96031.63
2019-03-01T13:28:24.183Z,96035.46
2019-03-01T13:30:50.621Z,96032.53
2019-03-01T13:33:17.003Z,96027.12
2019-03-01T13:35:43.463Z,96031.97
2019-03-01T13:38:09.751Z,96030.38
2019-03-01T13:40:36.331Z,96028.47
2019-03-01T13:43:02.715Z,96031.17
2019-03-01T13:45:29.052Z,96032.20
2019-03-01T13:47:55.461Z,96027.12
2019-03-01T13:50:21.918Z,96028.24
2019-03-01T13:52:49.740Z,96027.12
2019-03-01T13:55:18.588Z,96031.17
2019-03-01T13:57:45.926Z,96031.41
2019-03-01T14:00:17.246Z,96034.01
2019-03-01T14:02:46.946Z,96030.74
2019-03-01T14:05:17.054Z,96042.12
2019-03-01T14:07:42.467Z,96040.53
2019-03-01T14:10:12.603Z,96044.36
2019-03-01T14:12:38.903Z,96041.77
2019-03-01T14:15:13.283Z,96045.39
2019-03-01T14:17:39.778Z,96042.00
2019-03-01T14:20:19.075Z,96040.55
2019-03-01T14:25:43.607Z,96032.51
2019-03-01T14:28:09.902Z,96054.39
2019-03-01T14:30:36.495Z,96051.56
2019-03-01T14:33:03.096Z,96052.25
2019-03-01T14:35:29.464Z,96055.61
2019-03-01T14:37:55.928Z,96050.30
2019-03-01T14:40:23.660Z,96048.85
2019-03-01T14:42:50.488Z,96048.06
2019-03-01T14:45:31.487Z,96044.11
2019-03-01T14:47:57.787Z,96045.55
2019-03-01T14:50:25.927Z,96050.06
2019-03-01T14:52:56.922Z,96041.50
2019-03-01T14:55:44.184Z,96041.27
2019-03-01T14:58:28.188Z,96051.19
2019-03-01T15:01:26.876Z,96048.48
2019-03-01T15:03:53.577Z,96035.53
2019-03-01T15:06:20.734Z,96042.84
2019-03-01T15:08:47.147Z,96039.92
2019-03-01T15:11:13.932Z,96033.72
2019-03-01T15:13:41.414Z,96032.50
2019-03-01T15:16:08.105Z,96030.36
2019-03-01T15:18:36.422Z,96031.38
2019-03-01T15:21:04.664Z,96038.14
2019-03-01T15:23:30.987Z,96036.78
2019-03-01T15:25:57.768Z,96038.70
2019-03-01T15:28:24.291Z,96036.55
2019-03-01T15:30:51.039Z,96033.39
2019-03-01T15:33:17.431Z,96036.19
2019-03-01T15:35:43.794Z,96032.69
2019-03-01T15:38:10.880Z,96029.98
2019-03-01T15:40:37.561Z,96033.81
2019-03-01T15:43:04.259Z,96029.52
2019-03-01T15:45:30.958Z,96031.00
2019-03-01T15:47:58.843Z,96025.70
2019-03-01T15:50:27.208Z,96027.61
2019-03-01T15:52:54.239Z,96033.02
2019-03-01T15:55:20.752Z,96040.32
2019-03-01T15:57:47.133Z,96036.40
2019-03-01T16:00:16.474Z,96040.55
2019-03-01T16:02:42.979Z,96044.36
2019-03-01T16:05:11.946Z,96047.39
2019-03-01T16:07:38.279Z,96053.12
2019-03-01T16:10:10.243Z,96055.15
2019-03-01T16:12:36.590Z,96071.12
2019-03-01T16:15:08.680Z,96074.70
2019-03-01T16:17:34.987Z,96077.50
2019-03-01T16:20:01.328Z,96081.34
2019-03-01T16:22:27.838Z,96083.34
2019-03-01T16:24:54.235Z,96080.97
2019-03-01T16:27:20.635Z,96082.41
2019-03-01T16:29:46.952Z,96086.81
2019-03-01T16:32:13.499Z,96090.95
2019-03-01T16:34:41.400Z,96098.27
2019-03-01T16:37:08.580Z,96102.63
2019-03-01T16:39:35.065Z,96093.74
2019-03-01T16:42:01.550Z,96091.17
2019-03-01T16:44:28.083Z,96094.75
2019-03-01T16:46:54.464Z,96093.48
2019-03-01T16:49:23.590Z,96094.84
2019-03-01T16:51:50.596Z,96099.33
2019-03-01T16:54:17.581Z,96100.45
2019-03-01T16:56:43.888Z,96106.95
2019-03-01T16:59:10.853Z,96105.93
2019-03-01T17:01:37.135Z,96104.91
2019-03-01T17:04:03.658Z,96108.72
2019-03-01T17:06:30.563Z,96112.77
2019-03-01T17:08:56.884Z,96119.08
2019-03-01T17:11:23.500Z,96115.91
2019-03-01T17:13:49.823Z,96118.37
2019-03-01T17:16:16.180Z,96120.39
2019-03-01T17:18:44.560Z,96122.06
2019-03-01T17:21:12.404Z,96126.44
2019-03-01T17:23:39.214Z,96131.59
2019-03-01T17:26:06.967Z,96131.83
2019-03-01T17:28:33.387Z,96140.39
2019-03-01T17:30:59.703Z,96142.63
2019-03-01T17:33:26.212Z,96143.18
2019-03-01T17:35:52.902Z,96151.36
2019-03-01T17:38:19.197Z,96148.22
2019-03-01T17:40:45.526Z,96155.84
2019-03-01T17:43:11.963Z,96163.22
2019-03-01T17:45:38.365Z,96164.09
2019-03-01T17:48:04.693Z,96164.77
2019-03-01T17:50:31.020Z,96169.93
2019-03-01T17:52:57.569Z,96178.34
2019-03-01T17:55:26.361Z,96192.15
2019-03-01T17:57:52.687Z,96189.21
2019-03-01T18:00:32.458Z,96186.52
2019-03-01T18:03:00.411Z,96191.91
2019-03-01T18:05:27.077Z,96194.16
2019-03-01T18:07:53.501Z,96192.34
2019-03-01T18:10:19.991Z,96192.42
2019-03-01T18:12:46.386Z,96197.02
2019-03-01T18:15:15.708Z,96206.25
2019-03-01T18:17:42.951Z,96215.70
2019-03-01T18:20:11.295Z,96226.25
2019-03-01T18:22:37.787Z,96238.94
2019-03-01T18:25:12.968Z,96242.50
2019-03-01T18:27:40.148Z,96246.39
2019-03-01T18:30:19.858Z,96254.91
2019-03-01T18:32:46.748Z,96247.45
2019-03-01T18:35:13.158Z,96243.34
2019-03-01T18:37:39.549Z,96252.97
2019-03-01T18:40:13.447Z,96261.92
2019-03-01T18:42:39.849Z,96257.16
2019-03-01T18:45:21.786Z,96264.56
2019-03-01T18:47:48.137Z,96265.50
2019-03-01T18:50:34.304Z,96254.59
2019-03-01T18:53:03.905Z,96258.15
2019-03-01T18:55:30.346Z,96256.08
2019-03-01T18:57:56.875Z,96260.54
2019-03-01T19:00:32.411Z,96264.10
2019-03-01T19:03:04.469Z,96258.33
2019-03-01T19:05:31.868Z,96263.55
2019-03-01T19:08:00.812Z,96268.70
2019-03-01T19:10:27.616Z,96261.52
2019-03-01T19:12:55.091Z,96262.31
2019-03-01T19:15:21.585Z,96267.70
2019-03-01T19:17:48.268Z,96270.16
2019-03-01T19:20:27.397Z,96273.47
2019-03-01T19:22:53.941Z,96283.45
2019-03-01T19:25:21.636Z,96288.70
2019-03-01T19:27:50.805Z,96299.78
2019-03-01T19:30:23.574Z,96299.06
2019-03-01T19:32:50.393Z,96304.20
2019-03-01T19:35:16.824Z,96305.31
2019-03-01T19:37:45.788Z,96305.89
2019-03-01T19:40:18.742Z,96310.48
2019-03-01T19:42:45.675Z,96309.69
2019-03-01T19:45:16.835Z,96310.70
2019-03-01T19:47:43.513Z,96305.10
2019-03-01T19:50:21.704Z,96308.90
2019-03-01T19:52:50.399Z,96311.59
2019-03-01T19:55:17.093Z,96299.72
2019-03-01T19:57:43.617Z,96305.31
2019-03-01T20:00:22.919Z,96304.76
2019-03-01T20:02:49.524Z,96306.04
2019-03-01T20:05:31.721Z,96314.36
2019-03-01T20:07:56.700Z,96312.16
2019-03-01T20:10:23.596Z,96319.13
2019-03-01T20:12:50.220Z,96324.83
2019-03-01T20:15:20.615Z,96327.59
2019-03-01T20:17:47.566Z,96328.30
2019-03-01T20:20:17.076Z,96335.91
2019-03-01T20:22:43.468Z,96345.39
2019-03-01T20:25:16.153Z,96345.25
2019-03-01T20:27:41.668Z,96350.63
2019-03-01T20:30:13.264Z,96352.53
2019-03-01T20:32:40.155Z,96354.67
2019-03-01T20:35:09.681Z,96353.02
2019-03-01T20:37:39.878Z,96357.44
2019-03-01T20:40:11.373Z,96356.16
2019-03-01T20:42:38.095Z,96361.70
2019-03-01T20:45:12.719Z,96369.84
2019-03-01T20:47:39.359Z,96376.66
2019-03-01T20:50:08.247Z,96379.17
2019-03-01T20:52:34.778Z,96380.03
2019-03-01T20:55:01.761Z,96380.19
2019-03-01T20:57:28.373Z,96381.29
2019-03-01T20:59:54.746Z,96382.39
2019-03-01T21:02:21.130Z,96382.73
2019-03-01T21:04:53.357Z,96389.77
2019-03-01T21:07:16.572Z,96391.97
2019-03-01T21:09:43.144Z,96398.75
2019-03-01T21:12:09.520Z,96404.69
2019-03-01T21:14:35.849Z,96407.38
2019-03-01T21:17:02.484Z,96412.45
2019-03-01T21:19:28.980Z,96418.64
2019-03-01T21:21:55.441Z,96422.92
2019-03-01T21:24:26.540Z,96432.09
2019-03-01T21:26:52.340Z,96427.20
2019-03-01T21:29:18.673Z,96441.77
2019-03-01T21:31:44.992Z,96441.27
2019-03-01T21:34:11.514Z,96443.26
2019-03-01T21:36:37.719Z,96454.88
2019-03-01T21:39:05.879Z,96458.42
2019-03-01T21:41:32.287Z,96461.75
2019-03-01T21:43:58.487Z,96468.34
2019-03-01T21:46:25.135Z,96473.87
2019-03-01T21:48:51.452Z,96472.11
2019-03-01T21:51:18.499Z,96473.56
2019-03-01T21:53:45.331Z,96479.88
2019-03-01T21:56:11.839Z,96480.23
2019-03-01T21:58:38.657Z,96486.30
2019-03-01T22:01:07.023Z,96488.33
2019-03-01T22:03:34.023Z,96487.58
2019-03-01T22:06:00.460Z,96485.28
2019-03-01T22:08:27.103Z,96484.28
2019-03-01T22:10:53.587Z,96494.08
2019-03-01T22:13:19.968Z,96492.83
2019-03-01T22:15:46.335Z,96494.00
2019-03-01T22:18:12.674Z,96499.98
2019-03-01T22:20:41.549Z,96500.10
2019-03-01T22:23:09.826Z,96496.24
2019-03-01T22:25:37.892Z,96502.34
2019-03-01T22:30:51.088Z,96505.03
2019-03-01T22:33:20.728Z,96509.19
2019-03-01T22:35:45.649Z,96509.05
2019-03-01T22:38:11.941Z,96517.99
2019-03-01T22:40:38.391Z,96506.86
2019-03-01T22:43:04.811Z,96511.30
2019-03-01T22:45:31.246Z,96507.67
2019-03-01T22:47:57.815Z,96519.37
2019-03-01T22:50:24.102Z,96517.88
2019-03-01T22:52:50.536Z,96520.64
2019-03-01T22:55:18.326Z,96522.09
2019-03-01T22:57:45.155Z,96529.75
2019-03-01T23:00:47.793Z,96530.08
2019-03-01T23:03:18.847Z,96535.80
2019-03-01T23:05:44.033Z,96536.38
2019-03-01T23:08:10.413Z,96541.02
2019-03-01T23:10:37.150Z,96547.80
2019-03-01T23:13:03.935Z,96543.36
2019-03-01T23:15:30.478Z,96547.73
2019-03-01T23:17:56.945Z,96548.86
2019-03-01T23:20:26.391Z,96553.48
2019-03-01T23:22:51.943Z,96555.70
2019-03-01T23:25:18.367Z,96549.05
2019-03-01T23:27:44.760Z,96554.70
2019-03-01T23:30:11.401Z,96554.45
2019-03-01T23:32:37.794Z,96559.56
2019-03-01T23:35:04.823Z,96551.25
2019-03-01T23:37:31.298Z,96559.56
2019-03-01T23:40:01.091Z,96559.56
2019-03-01T23:42:26.023Z,96561.70
2019-03-01T23:44:52.429Z,96560.93
2019-03-01T23:47:19.061Z,96562.87
2019-03-01T23:49:45.506Z,96560.22
2019-03-01T23:52:12.114Z,96562.65
2019-03-01T23:54:40.681Z,96569.09
2019-03-01T23:57:06.970Z,96564.59
2019-03-01T23:59:33.548Z,96567.56
